Weather at Fazenda Pontão Airport

Public forecast

Using degrees Celsius for public forecast. Weather courtesy of forecast.io.

Closest aviation weather report (METAR) to Fazenda Pontão Airport

Closest report is Carajás Airport, 68.2 nm (126.3 km) NW. Retrieved 2022/07/04 16:00 UTC (11 minutes ago):

SBCJ 041600Z 12008KT 9999 SCT025 27/16 Q1019

Closest aviation forecast (TAF) to Fazenda Pontão Airport

Closest forecast is Carajás Airport, 68.2 nm (126.3 km) NW. Retrieved 2022/07/04 12:00 UTC (4 hours ago):

TAF SBCJ 040900Z 0412/0424 10010KT 9999 SCT040 TX29/0418Z TN25/0424Z BECMG 0421/0423 13005KT FEW040 RMK PFV